createdAt,value
2023-03-03T00:01:34.929Z,101051.63
2023-03-03T00:04:03.456Z,101044.59
2023-03-03T00:06:31.982Z,101048.97
2023-03-03T00:09:01.477Z,101037.94
2023-03-03T00:11:29.464Z,101030.19
2023-03-03T00:13:58.551Z,101032.69
2023-03-03T00:16:31.138Z,101033.50
2023-03-03T00:19:01.378Z,101029.53
2023-03-03T00:21:31.739Z,101032.00
2023-03-03T00:24:16.539Z,101028.16
2023-03-03T00:26:47.683Z,101021.00
2023-03-03T00:29:37.990Z,101020.59
2023-03-03T00:32:24.008Z,101004.69
2023-03-03T00:34:53.436Z,101015.16
2023-03-03T00:37:29.446Z,101008.16
2023-03-03T00:40:15.584Z,101012.38
2023-03-03T00:42:46.581Z,101002.94
2023-03-03T00:45:30.723Z,100991.16
2023-03-03T00:48:00.245Z,100994.47
2023-03-03T00:50:31.457Z,100995.25
2023-03-03T00:53:08.085Z,100990.78
2023-03-03T00:55:37.725Z,100984.84
2023-03-03T00:58:06.206Z,100976.91
2023-03-03T01:00:34.644Z,100981.03
2023-03-03T01:03:05.297Z,100980.41
2023-03-03T01:05:34.242Z,100972.41
2023-03-03T01:08:03.222Z,100975.00
2023-03-03T01:10:34.360Z,100963.75
2023-03-03T01:13:04.459Z,100972.31
2023-03-03T01:15:32.972Z,100966.19
2023-03-03T01:18:01.870Z,100964.59
2023-03-03T01:20:29.994Z,100960.25
2023-03-03T01:22:57.968Z,100955.88
2023-03-03T01:25:26.071Z,100953.19
2023-03-03T01:27:54.214Z,100960.91
2023-03-03T01:30:24.200Z,100960.19
2023-03-03T01:32:52.576Z,100953.44
2023-03-03T01:35:20.923Z,100943.44
2023-03-03T01:37:48.934Z,100957.44
2023-03-03T01:40:19.242Z,100954.59
2023-03-03T01:42:47.326Z,100950.13
2023-03-03T01:45:19.572Z,100939.03
2023-03-03T01:47:54.350Z,100941.63
2023-03-03T01:50:32.700Z,100945.13
2023-03-03T01:53:03.908Z,100947.75
2023-03-03T01:55:35.968Z,100947.75
2023-03-03T01:58:08.625Z,100940.97
2023-03-03T02:00:38.980Z,100945.22
2023-03-03T02:03:08.712Z,100941.84
2023-03-03T02:05:37.222Z,100914.88
2023-03-03T02:08:06.019Z,100936.75
2023-03-03T02:10:34.605Z,100933.41
2023-03-03T02:13:03.051Z,100931.00
2023-03-03T02:15:36.024Z,100929.53
2023-03-03T02:18:06.481Z,100922.66
2023-03-03T02:20:53.185Z,100929.31
2023-03-03T02:23:27.472Z,100924.97
2023-03-03T02:26:04.486Z,100920.63
2023-03-03T02:28:35.295Z,100929.31
2023-03-03T02:31:03.660Z,100927.56
2023-03-03T02:33:31.682Z,100923.31
2023-03-03T02:35:59.804Z,100927.25
2023-03-03T02:38:31.474Z,100920.91
2023-03-03T02:41:09.391Z,100925.28
2023-03-03T02:43:46.106Z,100918.31
2023-03-03T02:46:14.674Z,100924.16
2023-03-03T02:48:42.836Z,100921.63
2023-03-03T02:51:10.980Z,100924.16
2023-03-03T02:53:39.022Z,100920.81
2023-03-03T02:56:10.197Z,100923.47
2023-03-03T02:58:39.031Z,100923.59
2023-03-03T03:01:07.365Z,100916.63
2023-03-03T03:03:35.521Z,100920.81
2023-03-03T03:06:04.323Z,100912.31
2023-03-03T03:08:32.513Z,100915.81
2023-03-03T03:11:00.734Z,100910.84
2023-03-03T03:13:30.596Z,100905.06
2023-03-03T03:15:58.707Z,100911.56
2023-03-03T03:18:28.143Z,100909.69
2023-03-03T03:20:56.297Z,100915.66
2023-03-03T03:23:24.350Z,100908.94
2023-03-03T03:25:52.675Z,100909.06
2023-03-03T03:28:20.725Z,100876.16
2023-03-03T03:30:53.041Z,100896.94
2023-03-03T03:33:21.608Z,100889.44
2023-03-03T03:35:50.598Z,100890.19
2023-03-03T03:38:18.875Z,100886.72
2023-03-03T03:40:47.002Z,100884.84
2023-03-03T03:43:15.521Z,100889.78
2023-03-03T03:45:44.812Z,100840.41
2023-03-03T03:48:15.993Z,100892.59
2023-03-03T03:50:44.194Z,100887.56
2023-03-03T03:53:12.466Z,100887.44
2023-03-03T03:55:40.911Z,100889.91
2023-03-03T03:58:09.027Z,100900.22
2023-03-03T04:00:37.228Z,100892.28
2023-03-03T04:03:05.888Z,100887.75
2023-03-03T04:05:35.416Z,100893.56
2023-03-03T04:08:03.954Z,100884.91
2023-03-03T04:10:32.243Z,100878.22
2023-03-03T04:13:00.250Z,100881.47
2023-03-03T04:15:28.432Z,100884.72
2023-03-03T04:17:56.935Z,100881.38
2023-03-03T04:20:25.256Z,100889.16
2023-03-03T04:22:55.231Z,100876.47
2023-03-03T04:25:23.560Z,100881.47
2023-03-03T04:27:52.244Z,100884.91
2023-03-03T04:30:20.737Z,100886.63
2023-03-03T04:32:49.834Z,100875.75
2023-03-03T04:35:18.237Z,100896.84
2023-03-03T04:37:46.338Z,100894.31
2023-03-03T04:40:16.580Z,100884.94
2023-03-03T04:42:44.676Z,100894.94
2023-03-03T04:45:13.551Z,100884.72
2023-03-03T04:47:42.024Z,100893.16
2023-03-03T04:50:11.834Z,100889.69
2023-03-03T04:52:40.438Z,100887.91
2023-03-03T04:55:10.588Z,100892.84
2023-03-03T04:57:40.168Z,100891.28
2023-03-03T05:00:09.699Z,100888.94
2023-03-03T05:02:38.107Z,100888.91
2023-03-03T05:05:07.117Z,100886.72
2023-03-03T05:07:35.161Z,100886.63
2023-03-03T05:10:03.513Z,100882.94
2023-03-03T05:12:31.881Z,100870.19
2023-03-03T05:15:01.539Z,100877.94
2023-03-03T05:17:30.104Z,100891.44
2023-03-03T05:19:58.351Z,100892.09
2023-03-03T05:22:27.003Z,100882.31
2023-03-03T05:24:55.144Z,100887.94
2023-03-03T05:27:23.138Z,100886.84
2023-03-03T05:29:51.474Z,100879.84
2023-03-03T05:32:21.068Z,100887.25
2023-03-03T05:34:49.190Z,100882.78
2023-03-03T05:37:17.402Z,100885.22
2023-03-03T05:39:45.476Z,100890.09
2023-03-03T05:42:14.293Z,100894.94
2023-03-03T05:44:42.576Z,100872.16
2023-03-03T05:47:11.073Z,100887.91
2023-03-03T05:49:40.803Z,100887.78
2023-03-03T05:52:09.451Z,100894.53
2023-03-03T05:54:38.340Z,100896.88
2023-03-03T05:57:06.378Z,100901.06
2023-03-03T05:59:34.458Z,100892.34
2023-03-03T06:02:03.051Z,100891.38
2023-03-03T06:04:31.423Z,100885.38
2023-03-03T06:07:00.990Z,100895.38
2023-03-03T06:09:29.160Z,100896.09
2023-03-03T06:11:57.261Z,100893.50
2023-03-03T06:14:27.065Z,100889.16
2023-03-03T06:16:55.675Z,100895.00
2023-03-03T06:19:23.770Z,100893.13
2023-03-03T06:21:51.857Z,100891.25
2023-03-03T06:24:21.699Z,100892.81
2023-03-03T06:26:49.817Z,100908.06
2023-03-03T06:29:18.303Z,100904.28
2023-03-03T06:31:46.830Z,100905.69
2023-03-03T06:34:15.075Z,100907.22
2023-03-03T06:36:43.443Z,100907.78
2023-03-03T06:39:11.798Z,100908.31
2023-03-03T06:41:41.479Z,100894.56
2023-03-03T06:44:09.717Z,100903.59
2023-03-03T06:46:37.848Z,100897.88
2023-03-03T06:49:06.381Z,100910.25
2023-03-03T06:51:38.609Z,100902.72
2023-03-03T06:54:12.879Z,100910.81
2023-03-03T06:56:43.462Z,100908.09
2023-03-03T06:59:14.920Z,100907.03
2023-03-03T07:01:44.102Z,100911.34
2023-03-03T07:04:18.044Z,100909.53
2023-03-03T07:06:46.868Z,100908.28
2023-03-03T07:09:22.200Z,100909.06
2023-03-03T07:11:52.091Z,100897.78
2023-03-03T07:14:22.011Z,100900.16
2023-03-03T07:16:55.125Z,100907.38
2023-03-03T07:19:31.598Z,100896.50
2023-03-03T07:22:00.524Z,100883.22
2023-03-03T07:24:30.366Z,100894.53
2023-03-03T07:27:12.594Z,100889.31
2023-03-03T07:29:42.413Z,100892.41
2023-03-03T07:32:29.226Z,100884.47
2023-03-03T07:34:57.852Z,100882.00
2023-03-03T07:37:33.065Z,100887.41
2023-03-03T07:40:02.393Z,100880.19
2023-03-03T07:42:39.047Z,100887.22
2023-03-03T07:45:24.841Z,100874.38
2023-03-03T07:47:52.927Z,100885.47
2023-03-03T07:50:24.425Z,100871.81
2023-03-03T07:52:57.501Z,100867.97
2023-03-03T07:55:34.997Z,100886.31
2023-03-03T07:58:22.398Z,100878.84
2023-03-03T08:01:29.438Z,100858.75
2023-03-03T08:03:58.439Z,100878.41
2023-03-03T08:06:49.650Z,100882.47
2023-03-03T08:09:37.553Z,100877.25
2023-03-03T08:12:30.754Z,100881.09
2023-03-03T08:15:16.016Z,100878.91
2023-03-03T08:17:46.023Z,100870.34
2023-03-03T08:20:46.715Z,100877.53
2023-03-03T08:23:16.313Z,100877.59
2023-03-03T08:25:45.498Z,100867.19
2023-03-03T08:28:14.215Z,100873.03
2023-03-03T08:30:45.504Z,100874.47
2023-03-03T08:33:14.503Z,100873.09
2023-03-03T08:35:42.927Z,100863.03
2023-03-03T08:38:11.650Z,100867.50
2023-03-03T08:40:40.088Z,100860.06
2023-03-03T08:43:08.564Z,100851.50
2023-03-03T08:45:37.545Z,100855.94
2023-03-03T08:48:07.915Z,100847.56
2023-03-03T08:50:36.197Z,100851.63
2023-03-03T08:53:04.309Z,100850.72
2023-03-03T08:55:32.793Z,100850.97
2023-03-03T08:58:01.286Z,100849.56
2023-03-03T09:00:29.671Z,100848.94
2023-03-03T09:02:58.034Z,100847.13
2023-03-03T09:05:28.268Z,100843.44
2023-03-03T09:07:57.001Z,100839.03
2023-03-03T09:10:30.945Z,100816.09
2023-03-03T09:13:02.056Z,100838.53
2023-03-03T09:15:32.486Z,100835.19
2023-03-03T09:18:03.566Z,100834.25
2023-03-03T09:20:39.307Z,100829.84
2023-03-03T09:23:42.538Z,100813.72
2023-03-03T09:26:30.906Z,100827.41
2023-03-03T09:29:17.259Z,100828.06
2023-03-03T09:31:47.507Z,100831.72
2023-03-03T09:34:23.606Z,100833.47
2023-03-03T09:36:54.114Z,100823.91
2023-03-03T09:39:24.885Z,100829.31
2023-03-03T09:42:16.476Z,100822.78
2023-03-03T09:45:04.716Z,100822.41
2023-03-03T09:47:49.117Z,100814.91
2023-03-03T09:50:31.169Z,100821.38
2023-03-03T09:53:17.012Z,100823.59
2023-03-03T09:55:52.002Z,100828.31
2023-03-03T09:58:37.620Z,100826.56
2023-03-03T10:01:34.313Z,100827.66
2023-03-03T10:04:42.298Z,100819.69
2023-03-03T10:07:27.602Z,100822.97
2023-03-03T10:10:23.027Z,100829.34
2023-03-03T10:13:06.637Z,100806.38
2023-03-03T10:15:45.398Z,100811.63
2023-03-03T10:18:33.513Z,100803.13
2023-03-03T10:21:10.120Z,100811.22
2023-03-03T10:23:58.863Z,100807.19
2023-03-03T10:27:12.544Z,100799.00
2023-03-03T10:29:51.659Z,100795.06
2023-03-03T10:32:49.852Z,100781.56
2023-03-03T10:35:32.405Z,100793.16
2023-03-03T10:38:33.369Z,100781.28
2023-03-03T10:41:18.906Z,100767.81
2023-03-03T10:44:11.726Z,100764.59
2023-03-03T10:46:53.255Z,100758.22
2023-03-03T10:49:40.066Z,100749.47
2023-03-03T10:52:24.261Z,100742.41
2023-03-03T10:55:10.565Z,100738.91
2023-03-03T10:57:46.448Z,100742.50
2023-03-03T11:00:41.888Z,100737.56
2023-03-03T11:03:50.387Z,100723.78
2023-03-03T11:06:23.570Z,100714.56
2023-03-03T11:08:56.860Z,100722.31
2023-03-03T11:11:36.451Z,100718.91
2023-03-03T11:14:13.619Z,100707.59
2023-03-03T11:17:01.458Z,100720.25
2023-03-03T11:19:52.803Z,100715.03
2023-03-03T11:22:35.349Z,100711.09
2023-03-03T11:25:17.477Z,100710.88
2023-03-03T11:28:15.869Z,100718.63
2023-03-03T11:30:56.775Z,100707.59
2023-03-03T11:33:33.383Z,100712.25
2023-03-03T11:36:12.470Z,100707.97
2023-03-03T11:38:55.014Z,100713.09
2023-03-03T11:41:35.724Z,100708.97
2023-03-03T11:44:13.062Z,100706.94
2023-03-03T11:46:46.244Z,100703.13
2023-03-03T11:49:22.800Z,100703.28
2023-03-03T11:52:03.526Z,100700.47
2023-03-03T11:54:38.264Z,100699.88
2023-03-03T11:57:18.421Z,100701.47
2023-03-03T11:59:57.524Z,100693.56
2023-03-03T12:02:52.155Z,100693.47
2023-03-03T12:05:36.402Z,100688.91
2023-03-03T12:08:15.331Z,100692.81
2023-03-03T12:10:52.279Z,100679.00
2023-03-03T12:13:28.870Z,100690.28
2023-03-03T12:16:05.750Z,100686.13
2023-03-03T12:18:51.815Z,100678.34
2023-03-03T12:21:56.711Z,100679.41
2023-03-03T12:24:43.534Z,100689.09
2023-03-03T12:27:20.643Z,100684.41
2023-03-03T12:30:03.333Z,100683.97
2023-03-03T12:33:02.734Z,100682.41
2023-03-03T12:35:38.003Z,100686.41
2023-03-03T12:38:16.550Z,100675.84
2023-03-03T12:40:52.255Z,100686.56
2023-03-03T12:43:36.259Z,100679.19
2023-03-03T12:46:10.500Z,100690.53
2023-03-03T12:48:43.271Z,100689.63
2023-03-03T12:51:20.249Z,100682.22
2023-03-03T12:54:37.033Z,100686.00
2023-03-03T12:57:15.393Z,100681.28
2023-03-03T12:59:49.974Z,100677.19
2023-03-03T13:02:35.189Z,100682.91
2023-03-03T13:05:10.317Z,100674.44
2023-03-03T13:07:46.387Z,100678.78
2023-03-03T13:10:25.645Z,100670.06
2023-03-03T13:13:00.914Z,100689.91
2023-03-03T13:15:33.898Z,100683.22
2023-03-03T13:18:20.909Z,100689.41
2023-03-03T13:20:55.186Z,100676.41
2023-03-03T13:23:38.473Z,100677.19
2023-03-03T13:26:15.310Z,100685.31
2023-03-03T13:28:58.108Z,100679.34
2023-03-03T13:31:33.404Z,100677.19
2023-03-03T13:34:03.217Z,100680.88
2023-03-03T13:36:39.614Z,100683.13
2023-03-03T13:39:20.137Z,100682.53
2023-03-03T13:41:58.052Z,100677.69
2023-03-03T13:44:32.205Z,100643.72
2023-03-03T13:47:04.245Z,100685.69
2023-03-03T13:49:47.690Z,100680.94
2023-03-03T13:52:22.499Z,100681.44
2023-03-03T13:55:07.405Z,100685.19
2023-03-03T13:57:45.332Z,100677.56
2023-03-03T14:00:22.810Z,100660.31
2023-03-03T14:03:05.129Z,100667.13
2023-03-03T14:05:39.366Z,100663.19
2023-03-03T14:08:12.758Z,100670.38
2023-03-03T14:10:45.564Z,100669.47
2023-03-03T14:13:21.923Z,100672.97
2023-03-03T14:15:57.166Z,100669.31
2023-03-03T14:18:32.434Z,100667.78
2023-03-03T14:21:06.317Z,100678.94
2023-03-03T14:23:47.664Z,100676.34
2023-03-03T14:26:15.804Z,100668.66
2023-03-03T14:28:48.453Z,100671.31
2023-03-03T14:31:23.054Z,100665.63
2023-03-03T14:34:03.704Z,100644.56
2023-03-03T14:36:41.816Z,100655.72
2023-03-03T14:39:31.888Z,100662.19
2023-03-03T14:42:00.737Z,100653.56
2023-03-03T14:44:33.385Z,100665.47
2023-03-03T14:47:17.907Z,100665.63
2023-03-03T14:49:45.939Z,100656.94
2023-03-03T14:52:23.856Z,100660.28
2023-03-03T14:54:54.085Z,100650.75
2023-03-03T14:57:24.610Z,100650.56
2023-03-03T15:00:07.025Z,100652.75
2023-03-03T15:02:42.251Z,100652.59
2023-03-03T15:05:18.903Z,100659.38
2023-03-03T15:07:48.909Z,100659.09
2023-03-03T15:10:30.076Z,100652.81
2023-03-03T15:12:58.239Z,100647.88
2023-03-03T15:15:29.744Z,100655.56
2023-03-03T15:18:02.856Z,100644.63
2023-03-03T15:20:43.801Z,100656.09
2023-03-03T15:23:36.023Z,100642.72
2023-03-03T15:26:09.914Z,100639.72
2023-03-03T15:29:00.663Z,100646.91
2023-03-03T15:31:40.196Z,100653.66
2023-03-03T15:34:25.116Z,100651.25
2023-03-03T15:37:00.405Z,100665.91
2023-03-03T15:39:36.235Z,100667.75
2023-03-03T15:42:07.382Z,100666.38
2023-03-03T15:44:52.527Z,100662.28
2023-03-03T15:47:44.866Z,100662.53
2023-03-03T15:50:27.293Z,100669.31
2023-03-03T15:53:08.073Z,100676.41
2023-03-03T15:55:56.455Z,100663.25
2023-03-03T15:59:02.431Z,100674.09
2023-03-03T16:01:35.033Z,100650.50
2023-03-03T16:04:08.594Z,100677.59
2023-03-03T16:06:48.484Z,100688.44
2023-03-03T16:09:32.456Z,100683.94
2023-03-03T16:12:09.877Z,100685.09
2023-03-03T16:14:51.001Z,100691.84
2023-03-03T16:17:29.043Z,100692.06
2023-03-03T16:20:07.449Z,100694.75
2023-03-03T16:22:50.038Z,100690.59
2023-03-03T16:25:48.619Z,100699.97
2023-03-03T16:28:23.968Z,100704.75
2023-03-03T16:30:58.481Z,100694.84
2023-03-03T16:33:35.766Z,100704.06
2023-03-03T16:36:14.299Z,100698.56
2023-03-03T16:38:46.204Z,100699.59
2023-03-03T16:41:21.024Z,100709.31
2023-03-03T16:44:00.823Z,100707.63
2023-03-03T16:46:34.909Z,100713.78
2023-03-03T16:49:07.833Z,100713.72
2023-03-03T16:51:45.933Z,100701.91
2023-03-03T16:54:22.081Z,100721.19
2023-03-03T16:57:01.989Z,100715.63
2023-03-03T16:59:57.060Z,100726.16
2023-03-03T17:02:48.976Z,100725.91
2023-03-03T17:05:26.799Z,100696.28
2023-03-03T17:08:13.516Z,100722.22
2023-03-03T17:10:46.074Z,100722.50
2023-03-03T17:13:33.545Z,100709.47
2023-03-03T17:16:11.491Z,100723.69
2023-03-03T17:18:54.245Z,100727.66
2023-03-03T17:21:31.126Z,100729.47
2023-03-03T17:24:24.548Z,100718.03
2023-03-03T17:27:01.704Z,100723.38
2023-03-03T17:29:41.010Z,100734.69
2023-03-03T17:32:22.913Z,100729.63
2023-03-03T17:35:07.076Z,100733.63
2023-03-03T17:37:45.490Z,100735.03
2023-03-03T17:40:26.311Z,100735.31
2023-03-03T17:43:02.728Z,100739.78
2023-03-03T17:45:36.758Z,100736.28
2023-03-03T17:48:19.755Z,100747.66
2023-03-03T17:51:04.888Z,100747.19
2023-03-03T17:53:56.914Z,100749.56
2023-03-03T17:56:31.106Z,100750.47
2023-03-03T17:59:09.629Z,100751.75
2023-03-03T18:02:02.613Z,100744.25
2023-03-03T18:05:03.868Z,100752.00
2023-03-03T18:07:58.917Z,100737.72
2023-03-03T18:10:44.370Z,100737.97
2023-03-03T18:13:30.576Z,100752.81
2023-03-03T18:16:12.389Z,100751.44
2023-03-03T18:19:10.852Z,100756.75
2023-03-03T18:21:44.938Z,100748.22
2023-03-03T18:24:31.858Z,100762.63
2023-03-03T18:27:29.337Z,100764.03
2023-03-03T18:30:21.793Z,100761.50
2023-03-03T18:33:07.456Z,100756.19
2023-03-03T18:35:38.612Z,100734.94
2023-03-03T18:38:32.305Z,100768.47
2023-03-03T18:41:02.500Z,100757.72
2023-03-03T18:43:52.322Z,100767.81
2023-03-03T18:47:02.552Z,100770.56
2023-03-03T18:49:52.955Z,100775.34
2023-03-03T18:52:27.488Z,100770.16
2023-03-03T18:55:27.754Z,100770.50
2023-03-03T18:58:22.829Z,100776.84
2023-03-03T19:00:53.763Z,100771.78
2023-03-03T19:03:30.118Z,100764.47
2023-03-03T19:06:00.826Z,100787.06
2023-03-03T19:08:31.109Z,100782.66
2023-03-03T19:11:01.022Z,100792.69
2023-03-03T19:13:44.937Z,100785.25
2023-03-03T19:16:30.743Z,100795.59
2023-03-03T19:19:03.006Z,100789.97
2023-03-03T19:21:33.773Z,100799.91
2023-03-03T19:24:04.636Z,100766.16
2023-03-03T19:26:57.869Z,100797.84
2023-03-03T19:30:13.997Z,100809.00
2023-03-03T19:33:01.530Z,100803.09
2023-03-03T19:35:38.741Z,100800.75
2023-03-03T19:38:23.205Z,100759.50
2023-03-03T19:41:00.437Z,100804.00
2023-03-03T19:43:41.658Z,100801.81
2023-03-03T19:46:33.051Z,100799.47
2023-03-03T19:49:09.516Z,100802.97
2023-03-03T19:51:47.340Z,100799.09
2023-03-03T19:54:25.805Z,100804.16
2023-03-03T19:56:55.456Z,100807.63
2023-03-03T19:59:33.666Z,100810.16
2023-03-03T20:02:28.114Z,100799.53
2023-03-03T20:05:08.756Z,100797.78
2023-03-03T20:07:46.439Z,100802.50
2023-03-03T20:10:36.674Z,100777.69
2023-03-03T20:13:13.356Z,100812.13
2023-03-03T20:15:52.708Z,100808.63
2023-03-03T20:18:37.343Z,100808.06
2023-03-03T20:21:15.367Z,100809.22
2023-03-03T20:23:58.272Z,100802.50
2023-03-03T20:26:33.206Z,100790.59
2023-03-03T20:29:14.614Z,100803.88
2023-03-03T20:31:54.647Z,100802.91
2023-03-03T20:34:35.081Z,100799.81
2023-03-03T20:37:09.196Z,100809.88
2023-03-03T20:39:51.676Z,100804.84
2023-03-03T20:42:33.270Z,100785.16
2023-03-03T20:45:23.156Z,100796.69
2023-03-03T20:48:03.210Z,100803.69
2023-03-03T20:50:37.644Z,100799.50
2023-03-03T20:53:18.437Z,100797.06
2023-03-03T20:56:01.523Z,100802.00
2023-03-03T20:58:43.875Z,100796.69
2023-03-03T21:01:15.684Z,100797.53
2023-03-03T21:03:46.191Z,100802.69
2023-03-03T21:06:16.485Z,100784.84
2023-03-03T21:08:49.941Z,100802.69
2023-03-03T21:11:22.387Z,100800.75
2023-03-03T21:13:52.127Z,100784.84
2023-03-03T21:16:33.915Z,100800.84
2023-03-03T21:19:03.827Z,100800.09
2023-03-03T21:21:34.579Z,100771.75
2023-03-03T21:24:02.863Z,100802.44
2023-03-03T21:27:02.506Z,100803.38
2023-03-03T21:29:31.894Z,100806.94
2023-03-03T21:32:01.916Z,100810.63
2023-03-03T21:34:32.165Z,100798.47
2023-03-03T21:37:02.183Z,100809.28
2023-03-03T21:39:32.203Z,100811.63
2023-03-03T21:42:05.113Z,100811.44
2023-03-03T21:44:39.199Z,100820.56
2023-03-03T21:47:09.365Z,100817.56
2023-03-03T21:49:41.249Z,100803.94
2023-03-03T21:52:10.180Z,100813.69
2023-03-03T21:54:38.487Z,100820.00
2023-03-03T21:57:08.352Z,100807.75
2023-03-03T21:59:36.987Z,100809.03
2023-03-03T22:02:05.502Z,100822.19
2023-03-03T22:04:34.414Z,100807.16
2023-03-03T22:07:02.888Z,100811.63
2023-03-03T22:09:31.220Z,100814.91
2023-03-03T22:11:59.355Z,100804.13
2023-03-03T22:14:29.470Z,100807.97
2023-03-03T22:16:57.963Z,100812.41
2023-03-03T22:19:26.429Z,100788.81
2023-03-03T22:21:55.203Z,100801.13
2023-03-03T22:24:23.335Z,100806.94
2023-03-03T22:26:51.754Z,100816.78
2023-03-03T22:29:23.124Z,100807.97
2023-03-03T22:31:53.124Z,100810.13
2023-03-03T22:34:21.484Z,100806.66
2023-03-03T22:36:49.745Z,100803.78
2023-03-03T22:39:18.098Z,100799.28
2023-03-03T22:41:46.369Z,100802.91
2023-03-03T22:44:14.493Z,100790.28
2023-03-03T22:46:42.762Z,100782.53
2023-03-03T22:49:12.761Z,100794.22
2023-03-03T22:51:41.169Z,100796.28
2023-03-03T22:54:09.230Z,100800.66
2023-03-03T22:56:37.537Z,100795.06
2023-03-03T22:59:05.704Z,100789.06
2023-03-03T23:01:34.182Z,100786.59
2023-03-03T23:04:02.701Z,100792.47
2023-03-03T23:06:32.313Z,100798.41
2023-03-03T23:09:00.514Z,100797.38
2023-03-03T23:11:29.028Z,100792.22
2023-03-03T23:13:57.385Z,100803.13
2023-03-03T23:16:27.104Z,100783.59
2023-03-03T23:18:55.462Z,100790.31
2023-03-03T23:21:23.998Z,100798.69
2023-03-03T23:23:53.710Z,100801.47
2023-03-03T23:26:21.901Z,100800.97
2023-03-03T23:28:50.316Z,100790.91
2023-03-03T23:31:18.462Z,100811.56
2023-03-03T23:33:46.808Z,100802.88
2023-03-03T23:36:14.961Z,100802.63
2023-03-03T23:38:43.315Z,100805.44
2023-03-03T23:41:12.798Z,100806.28
2023-03-03T23:43:40.937Z,100809.59
2023-03-03T23:46:09.245Z,100808.81
2023-03-03T23:48:37.698Z,100797.94
2023-03-03T23:51:06.407Z,100796.97
2023-03-03T23:53:34.589Z,100802.13
2023-03-03T23:56:02.824Z,100791.03
2023-03-03T23:58:32.345Z,100798.53
